createdAt,value
2023-04-27T00:01:31.913Z,42.40
2023-04-27T00:06:25.612Z,42.00
2023-04-27T00:08:52.114Z,42.10
2023-04-27T00:11:18.599Z,41.90
2023-04-27T00:13:45.128Z,41.90
2023-04-27T00:16:11.614Z,42.10
2023-04-27T00:18:38.195Z,42.20
2023-04-27T00:21:04.711Z,41.90
2023-04-27T00:23:31.234Z,42.20
2023-04-27T00:25:57.732Z,42.30
2023-04-27T00:28:24.178Z,41.80
2023-04-27T00:30:50.666Z,41.90
2023-04-27T00:33:17.152Z,41.90
2023-04-27T00:35:43.639Z,41.90
2023-04-27T00:38:10.139Z,41.80
2023-04-27T00:40:36.632Z,41.80
2023-04-27T00:43:03.093Z,41.70
2023-04-27T00:45:29.556Z,41.70
2023-04-27T00:47:56.120Z,42.10
2023-04-27T00:50:22.631Z,41.80
2023-04-27T00:52:49.120Z,42.30
2023-04-27T00:55:15.608Z,42.00
2023-04-27T00:57:42.077Z,41.80
2023-04-27T01:00:08.580Z,42.30
2023-04-27T01:02:35.219Z,42.30
2023-04-27T01:05:01.830Z,42.10
2023-04-27T01:07:28.340Z,42.20
2023-04-27T01:09:54.806Z,42.40
2023-04-27T01:12:21.282Z,42.40
2023-04-27T01:17:14.762Z,41.70
2023-04-27T01:19:41.331Z,42.10
2023-04-27T01:22:07.809Z,42.10
2023-04-27T01:24:34.302Z,41.80
2023-04-27T01:27:00.765Z,41.50
2023-04-27T01:29:27.227Z,41.70
2023-04-27T01:31:53.687Z,41.60
2023-04-27T01:34:20.135Z,41.60
2023-04-27T01:36:46.589Z,41.60
2023-04-27T01:39:13.282Z,42.00
2023-04-27T01:41:39.870Z,41.70
2023-04-27T01:44:06.321Z,42.00
2023-04-27T01:46:32.786Z,41.70
2023-04-27T01:48:59.280Z,42.70
2023-04-27T01:59:38.643Z,41.90
2023-04-27T02:02:05.209Z,42.40
2023-04-27T02:06:58.876Z,41.50
2023-04-27T02:09:25.352Z,41.40
2023-04-27T02:14:18.865Z,41.30
2023-04-27T02:16:45.335Z,41.40
2023-04-27T02:19:12.062Z,41.20
2023-04-27T02:21:38.767Z,41.30
2023-04-27T02:24:05.304Z,41.20
2023-04-27T02:26:31.764Z,41.90
2023-04-27T02:28:58.282Z,41.10
2023-04-27T02:39:37.218Z,41.10
2023-04-27T02:42:03.733Z,41.20
2023-04-27T02:52:42.159Z,41.80
2023-04-27T02:57:52.820Z,41.30
2023-04-27T03:00:19.382Z,41.30
2023-04-27T03:08:14.115Z,41.70
2023-04-27T03:13:07.702Z,41.40
2023-04-27T03:18:18.390Z,41.50
2023-04-27T03:20:44.880Z,41.50
2023-04-27T03:25:38.287Z,41.20
2023-04-27T03:28:04.707Z,41.70
2023-04-27T03:30:31.174Z,41.20
2023-04-27T03:32:57.665Z,41.20
2023-04-27T03:35:24.207Z,41.70
2023-04-27T03:37:50.695Z,41.00
2023-04-27T03:40:17.176Z,41.40
2023-04-27T03:42:43.705Z,41.40
2023-04-27T03:45:10.234Z,40.80
2023-04-27T03:47:38.602Z,41.30
2023-04-27T03:50:05.076Z,41.10
2023-04-27T03:52:31.547Z,41.20
2023-04-27T03:54:58.021Z,41.20
2023-04-27T03:57:24.526Z,41.40
2023-04-27T03:59:51.023Z,41.80
2023-04-27T04:02:17.580Z,41.30
2023-04-27T04:04:44.217Z,41.30
2023-04-27T04:07:10.858Z,41.50
2023-04-27T04:09:37.357Z,42.10
2023-04-27T04:12:03.874Z,41.30
2023-04-27T04:14:30.356Z,41.80
2023-04-27T04:16:56.886Z,42.30
2023-04-27T04:19:23.397Z,41.40
2023-04-27T04:21:49.933Z,41.50
2023-04-27T04:24:16.403Z,41.30
2023-04-27T04:26:42.925Z,41.20
2023-04-27T04:29:10.809Z,41.50
2023-04-27T04:31:37.803Z,41.10
2023-04-27T04:34:04.385Z,41.90
2023-04-27T04:36:30.893Z,41.20
2023-04-27T04:38:57.465Z,41.40
2023-04-27T04:41:23.947Z,41.00
2023-04-27T04:43:50.493Z,40.90
2023-04-27T04:46:17.038Z,41.00
2023-04-27T04:48:43.542Z,41.10
2023-04-27T04:51:10.047Z,41.10
2023-04-27T04:53:36.538Z,41.10
2023-04-27T04:56:03.007Z,41.10
2023-04-27T04:58:29.490Z,41.50
2023-04-27T05:00:56.000Z,41.20
2023-04-27T05:03:22.506Z,41.60
2023-04-27T05:05:49.192Z,41.30
2023-04-27T05:08:15.707Z,41.40
2023-04-27T05:13:09.186Z,41.30
2023-04-27T05:15:35.675Z,41.70
2023-04-27T05:18:02.236Z,41.80
2023-04-27T05:20:28.771Z,41.50
2023-04-27T05:25:22.328Z,41.20
2023-04-27T05:30:16.022Z,41.30
2023-04-27T05:32:42.687Z,41.40
2023-04-27T05:35:09.189Z,41.40
2023-04-27T05:37:35.696Z,41.60
2023-04-27T05:40:02.183Z,41.60
2023-04-27T05:42:28.746Z,41.90
2023-04-27T05:44:55.465Z,41.90
2023-04-27T05:47:22.515Z,41.90
2023-04-27T05:49:49.110Z,42.40
2023-04-27T05:52:15.602Z,42.30
2023-04-27T05:54:42.171Z,42.20
2023-04-27T05:57:08.672Z,42.20
2023-04-27T05:59:35.227Z,42.90
2023-04-27T06:02:01.788Z,42.50
2023-04-27T06:06:55.601Z,42.40
2023-04-27T06:09:22.113Z,42.70
2023-04-27T06:11:48.635Z,42.40
2023-04-27T06:16:42.264Z,42.50
2023-04-27T06:19:08.782Z,42.90
2023-04-27T06:21:35.277Z,42.30
2023-04-27T06:24:01.823Z,42.60
2023-04-27T06:26:28.367Z,42.20
2023-04-27T06:28:54.951Z,42.30
2023-04-27T06:31:21.539Z,42.80
2023-04-27T06:33:48.130Z,42.30
2023-04-27T06:36:14.663Z,42.80
2023-04-27T06:38:41.186Z,42.50
2023-04-27T06:41:07.724Z,42.00
2023-04-27T06:43:34.220Z,42.30
2023-04-27T06:46:00.814Z,42.10
2023-04-27T06:48:27.433Z,42.80
2023-04-27T06:50:54.003Z,42.30
2023-04-27T06:53:20.515Z,42.00
2023-04-27T06:55:48.527Z,42.60
2023-04-27T06:58:15.573Z,42.70
2023-04-27T07:00:42.215Z,42.70
2023-04-27T07:03:08.933Z,42.00
2023-04-27T07:05:35.592Z,42.70
2023-04-27T07:08:05.352Z,42.10
2023-04-27T07:10:34.420Z,42.70
2023-04-27T07:13:00.936Z,42.10
2023-04-27T07:15:27.474Z,42.60
2023-04-27T07:17:54.088Z,42.00
2023-04-27T07:20:20.660Z,42.50
2023-04-27T07:22:47.158Z,42.60
2023-04-27T07:25:13.648Z,42.10
2023-04-27T07:27:40.147Z,41.90
2023-04-27T07:30:06.637Z,42.60
2023-04-27T07:32:33.199Z,42.60
2023-04-27T07:34:59.759Z,42.20
2023-04-27T07:37:26.284Z,41.90
2023-04-27T07:39:52.895Z,42.60
2023-04-27T07:42:19.434Z,42.30
2023-04-27T07:44:45.944Z,42.10
2023-04-27T07:47:12.511Z,42.60
2023-04-27T07:49:38.992Z,42.00
2023-04-27T07:52:05.506Z,42.50
2023-04-27T07:54:32.034Z,42.00
2023-04-27T07:56:58.632Z,42.40
2023-04-27T07:59:25.172Z,42.60
2023-04-27T08:01:51.768Z,42.70
2023-04-27T08:04:18.451Z,42.30
2023-04-27T08:06:45.757Z,42.80
2023-04-27T08:09:13.423Z,42.00
2023-04-27T08:14:07.209Z,42.20
2023-04-27T08:16:33.775Z,42.30
2023-04-27T08:21:27.512Z,42.10
2023-04-27T08:23:54.051Z,43.20
2023-04-27T08:26:20.583Z,42.70
2023-04-27T08:28:47.085Z,42.40
2023-04-27T08:31:13.659Z,42.70
2023-04-27T08:33:40.289Z,41.90
2023-04-27T08:36:06.854Z,42.60
2023-04-27T08:38:33.373Z,41.90
2023-04-27T08:41:07.485Z,42.70
2023-04-27T08:43:44.780Z,42.60
2023-04-27T08:46:11.318Z,43.00
2023-04-27T08:48:37.857Z,42.60
2023-04-27T08:51:04.378Z,42.60
2023-04-27T08:53:30.892Z,42.10
2023-04-27T08:55:57.422Z,42.60
2023-04-27T08:58:23.929Z,43.10
2023-04-27T09:03:19.269Z,42.20
2023-04-27T09:05:56.414Z,42.60
2023-04-27T09:08:29.862Z,42.60
2023-04-27T09:10:56.360Z,42.50
2023-04-27T09:15:49.897Z,41.80
2023-04-27T09:18:16.432Z,41.80
2023-04-27T09:20:42.914Z,42.50
2023-04-27T09:23:09.424Z,42.10
2023-04-27T09:25:35.926Z,42.70
2023-04-27T09:28:02.511Z,42.00
2023-04-27T09:30:29.068Z,43.10
2023-04-27T09:32:55.688Z,42.60
2023-04-27T09:35:22.210Z,42.00
2023-04-27T09:37:48.706Z,42.60
2023-04-27T09:40:15.219Z,42.60
2023-04-27T09:42:41.733Z,42.60
2023-04-27T09:45:08.250Z,42.20
2023-04-27T09:47:34.832Z,42.70
2023-04-27T09:50:01.392Z,42.80
2023-04-27T09:52:27.969Z,42.30
2023-04-27T09:54:54.500Z,41.90
2023-04-27T09:57:21.062Z,42.50
2023-04-27T09:59:47.594Z,42.70
2023-04-27T10:02:24.152Z,42.50
2023-04-27T10:04:51.670Z,42.00
2023-04-27T10:07:18.330Z,42.30
2023-04-27T10:09:44.889Z,42.50
2023-04-27T10:12:11.414Z,41.80
2023-04-27T10:14:37.972Z,42.10
2023-04-27T10:17:04.587Z,42.50
2023-04-27T10:19:31.158Z,42.70
2023-04-27T10:21:57.675Z,42.90
2023-04-27T10:24:24.227Z,43.00
2023-04-27T10:26:50.762Z,43.00
2023-04-27T10:29:17.278Z,42.40
2023-04-27T10:31:43.798Z,42.90
2023-04-27T10:34:10.351Z,43.10
2023-04-27T10:36:36.880Z,43.10
2023-04-27T10:39:03.430Z,42.40
2023-04-27T10:41:29.970Z,42.90
2023-04-27T10:43:56.492Z,42.50
2023-04-27T10:46:23.053Z,43.00
2023-04-27T10:48:49.655Z,43.50
2023-04-27T10:51:16.220Z,42.40
2023-04-27T10:53:42.756Z,42.50
2023-04-27T10:56:09.282Z,43.00
2023-04-27T10:58:48.178Z,42.20
2023-04-27T11:01:15.713Z,42.50
2023-04-27T11:03:42.305Z,42.50
2023-04-27T11:06:08.915Z,42.60
2023-04-27T11:08:35.440Z,43.00
2023-04-27T11:11:02.013Z,42.80
2023-04-27T11:13:28.697Z,42.30
2023-04-27T11:15:55.440Z,42.30
2023-04-27T11:18:22.023Z,42.10
2023-04-27T11:23:15.598Z,42.40
2023-04-27T11:25:42.151Z,42.20
2023-04-27T11:28:08.694Z,42.90
2023-04-27T11:30:35.225Z,42.90
2023-04-27T11:33:01.926Z,42.40
2023-04-27T11:35:28.442Z,42.50
2023-04-27T11:37:54.978Z,42.90
2023-04-27T11:40:24.417Z,42.90
2023-04-27T11:42:51.121Z,42.30
2023-04-27T11:45:17.677Z,42.30
2023-04-27T11:47:44.176Z,42.40
2023-04-27T11:50:10.729Z,42.40
2023-04-27T11:52:37.250Z,42.90
2023-04-27T11:55:03.757Z,42.50
2023-04-27T11:57:30.267Z,42.70
2023-04-27T11:59:56.837Z,42.60
2023-04-27T12:02:23.541Z,42.30
2023-04-27T12:04:50.327Z,42.70
2023-04-27T12:07:17.008Z,42.90
2023-04-27T12:09:43.496Z,42.60
2023-04-27T12:12:09.983Z,42.90
2023-04-27T12:14:36.494Z,42.30
2023-04-27T12:17:03.083Z,42.50
2023-04-27T12:19:29.665Z,42.60
2023-04-27T12:21:56.188Z,42.60
2023-04-27T12:24:22.732Z,42.70
2023-04-27T12:26:49.221Z,43.00
2023-04-27T12:29:15.751Z,43.00
2023-04-27T12:31:42.316Z,43.00
2023-04-27T12:34:08.951Z,42.50
2023-04-27T12:36:35.489Z,43.00
2023-04-27T12:39:02.020Z,43.00
2023-04-27T12:41:28.549Z,43.10
2023-04-27T12:43:55.060Z,42.50
2023-04-27T12:46:21.728Z,42.80
2023-04-27T12:48:48.366Z,42.60
2023-04-27T12:51:15.027Z,43.00
2023-04-27T12:53:41.542Z,42.50
2023-04-27T12:56:08.087Z,42.40
2023-04-27T12:58:34.607Z,42.60
2023-04-27T13:01:01.139Z,42.90
2023-04-27T13:03:27.876Z,42.60
2023-04-27T13:05:54.517Z,42.80
2023-04-27T13:08:21.074Z,42.60
2023-04-27T13:10:47.561Z,42.60
2023-04-27T13:13:14.062Z,42.60
2023-04-27T13:15:40.576Z,43.10
2023-04-27T13:18:07.162Z,42.40
2023-04-27T13:20:33.730Z,43.00
2023-04-27T13:23:00.273Z,43.10
2023-04-27T13:25:26.811Z,43.00
2023-04-27T13:27:53.367Z,42.50
2023-04-27T13:30:19.908Z,42.70
2023-04-27T13:32:46.476Z,43.10
2023-04-27T13:35:13.098Z,43.00
2023-04-27T13:37:39.614Z,43.40
2023-04-27T13:40:06.104Z,43.20
2023-04-27T13:44:59.725Z,42.80
2023-04-27T13:47:26.283Z,42.80
2023-04-27T13:49:52.824Z,43.00
2023-04-27T13:52:19.369Z,43.30
2023-04-27T13:54:45.873Z,42.80
2023-04-27T13:57:12.455Z,43.00
2023-04-27T13:59:39.001Z,43.30
2023-04-27T14:02:05.515Z,42.50
2023-04-27T14:04:32.155Z,43.00
2023-04-27T14:06:58.690Z,43.00
2023-04-27T14:09:25.240Z,43.10
2023-04-27T14:11:56.943Z,43.00
2023-04-27T14:14:24.023Z,43.40
2023-04-27T14:16:50.673Z,43.20
2023-04-27T14:19:17.235Z,43.00
2023-04-27T14:21:43.787Z,43.50
2023-04-27T14:24:10.470Z,43.40
2023-04-27T14:26:36.963Z,43.00
2023-04-27T14:29:03.528Z,42.90
2023-04-27T14:31:30.153Z,43.40
2023-04-27T14:33:56.762Z,43.20
2023-04-27T14:36:23.274Z,43.50
2023-04-27T14:38:49.843Z,43.30
2023-04-27T14:41:16.366Z,43.00
2023-04-27T14:43:42.881Z,43.10
2023-04-27T14:46:20.405Z,43.40
2023-04-27T14:48:47.910Z,43.30
2023-04-27T14:51:14.422Z,42.90
2023-04-27T14:53:40.969Z,43.10
2023-04-27T14:56:07.498Z,43.40
2023-04-27T14:58:34.043Z,43.40
2023-04-27T15:01:00.603Z,43.00
2023-04-27T15:03:27.304Z,43.40
2023-04-27T15:05:53.953Z,43.40
2023-04-27T15:08:20.486Z,43.30
2023-04-27T15:10:47.011Z,42.80
2023-04-27T15:13:13.544Z,43.30
2023-04-27T15:15:40.119Z,43.50
2023-04-27T15:18:06.786Z,43.10
2023-04-27T15:20:33.369Z,43.20
2023-04-27T15:22:59.851Z,42.20
2023-04-27T15:25:26.412Z,43.30
2023-04-27T15:27:52.946Z,43.50
2023-04-27T15:30:19.563Z,42.90
2023-04-27T15:32:46.122Z,43.30
2023-04-27T15:35:12.659Z,43.50
2023-04-27T15:37:39.205Z,43.00
2023-04-27T15:40:05.749Z,43.60
2023-04-27T15:42:32.288Z,42.30
2023-04-27T15:44:58.781Z,42.80
2023-04-27T15:47:25.385Z,43.20
2023-04-27T15:49:57.436Z,43.10
2023-04-27T15:52:24.832Z,43.40
2023-04-27T15:54:51.332Z,42.90
2023-04-27T15:57:17.898Z,42.90
2023-04-27T15:59:44.383Z,43.00
2023-04-27T16:02:11.096Z,43.20
2023-04-27T16:04:37.654Z,43.20
2023-04-27T16:07:04.195Z,43.20
2023-04-27T16:09:30.722Z,43.00
2023-04-27T16:11:57.283Z,43.10
2023-04-27T16:14:23.810Z,43.40
2023-04-27T16:16:50.416Z,43.50
2023-04-27T16:19:17.121Z,43.20
2023-04-27T16:21:43.721Z,43.80
2023-04-27T16:24:10.214Z,43.50
2023-04-27T16:26:36.725Z,43.90
2023-04-27T16:29:03.262Z,43.10
2023-04-27T16:31:29.799Z,43.90
2023-04-27T16:33:56.303Z,43.50
2023-04-27T16:36:22.821Z,43.80
2023-04-27T16:38:49.365Z,43.30
2023-04-27T16:41:15.885Z,42.90
2023-04-27T16:43:42.385Z,43.30
2023-04-27T16:46:08.926Z,43.10
2023-04-27T16:48:35.495Z,43.70
2023-04-27T16:51:02.031Z,43.10
2023-04-27T16:53:28.536Z,43.70
2023-04-27T16:55:55.035Z,43.70
2023-04-27T16:58:21.573Z,43.70
2023-04-27T17:00:48.108Z,43.20
2023-04-27T17:03:14.793Z,43.60
2023-04-27T17:05:41.556Z,43.10
2023-04-27T17:08:08.086Z,43.70
2023-04-27T17:10:34.629Z,43.20
2023-04-27T17:13:01.153Z,43.50
2023-04-27T17:15:27.725Z,43.50
2023-04-27T17:17:54.308Z,43.20
2023-04-27T17:20:20.868Z,43.70
2023-04-27T17:22:47.443Z,43.00
2023-04-27T17:25:13.967Z,43.40
2023-04-27T17:27:40.583Z,43.70
2023-04-27T17:30:08.237Z,43.70
2023-04-27T17:32:34.981Z,43.20
2023-04-27T17:35:01.564Z,43.10
2023-04-27T17:37:28.119Z,43.70
2023-04-27T17:39:54.681Z,43.20
2023-04-27T17:42:21.218Z,43.70
2023-04-27T17:44:47.780Z,43.70
2023-04-27T17:47:14.331Z,43.20
2023-04-27T17:49:40.855Z,43.80
2023-04-27T17:52:07.396Z,43.70
2023-04-27T17:57:14.321Z,42.50
2023-04-27T17:59:40.879Z,43.40
2023-04-27T18:02:07.427Z,43.40
2023-04-27T18:04:34.065Z,43.50
2023-04-27T18:07:00.599Z,43.70
2023-04-27T18:09:27.144Z,43.50
2023-04-27T18:11:53.704Z,43.60
2023-04-27T18:14:20.184Z,43.30
2023-04-27T18:16:46.793Z,44.00
2023-04-27T18:19:13.636Z,43.50
2023-04-27T18:21:40.297Z,43.70
2023-04-27T18:24:06.817Z,43.70
2023-04-27T18:26:33.298Z,43.90
2023-04-27T18:28:59.791Z,43.80
2023-04-27T18:31:26.340Z,43.80
2023-04-27T18:33:52.904Z,44.10
2023-04-27T18:36:19.394Z,43.50
2023-04-27T18:38:45.950Z,43.80
2023-04-27T18:41:12.476Z,44.10
2023-04-27T18:43:39.073Z,43.70
2023-04-27T18:46:05.668Z,44.00
2023-04-27T18:48:32.393Z,44.00
2023-04-27T18:50:58.958Z,44.50
2023-04-27T18:53:25.460Z,44.00
2023-04-27T18:55:52.034Z,44.30
2023-04-27T18:58:18.535Z,43.90
2023-04-27T19:00:45.039Z,44.20
2023-04-27T19:03:11.702Z,44.10
2023-04-27T19:05:38.391Z,44.10
2023-04-27T19:08:04.926Z,43.20
2023-04-27T19:10:31.418Z,44.10
2023-04-27T19:12:57.963Z,43.90
2023-04-27T19:15:24.545Z,43.90
2023-04-27T19:17:58.359Z,43.90
2023-04-27T19:20:29.176Z,43.70
2023-04-27T19:22:55.715Z,43.50
2023-04-27T19:25:22.308Z,43.50
2023-04-27T19:27:48.850Z,43.80
2023-04-27T19:30:15.369Z,43.90
2023-04-27T19:32:42.181Z,44.30
2023-04-27T19:35:10.584Z,44.00
2023-04-27T19:37:37.981Z,44.10
2023-04-27T19:40:04.470Z,44.00
2023-04-27T19:42:30.994Z,43.70
2023-04-27T19:44:57.541Z,44.20
2023-04-27T19:47:24.128Z,44.00
2023-04-27T19:49:50.746Z,44.30
2023-04-27T19:52:17.215Z,44.10
2023-04-27T19:54:43.722Z,43.40
2023-04-27T19:57:10.252Z,44.10
2023-04-27T19:59:36.767Z,44.10
2023-04-27T20:02:03.354Z,43.60
2023-04-27T20:12:55.402Z,43.40
2023-04-27T20:15:22.974Z,44.00
2023-04-27T20:23:08.253Z,43.40
2023-04-27T20:25:34.758Z,44.00
2023-04-27T20:28:01.302Z,43.90
2023-04-27T20:30:27.867Z,43.90
2023-04-27T20:32:54.412Z,43.90
2023-04-27T20:35:20.924Z,43.90
2023-04-27T20:37:47.407Z,43.60
2023-04-27T20:40:14.648Z,43.10
2023-04-27T20:42:41.227Z,43.80
2023-04-27T20:45:07.680Z,43.90
2023-04-27T20:47:34.177Z,43.80
2023-04-27T20:50:00.661Z,43.50
2023-04-27T20:52:30.563Z,43.80
2023-04-27T20:54:58.313Z,43.30
2023-04-27T20:57:24.776Z,43.50
2023-04-27T20:59:51.321Z,43.30
2023-04-27T21:02:17.855Z,43.80
2023-04-27T21:04:44.438Z,43.70
2023-04-27T21:07:10.972Z,43.70
2023-04-27T21:31:30.202Z,43.00
2023-04-27T21:33:56.817Z,43.60
2023-04-27T21:36:23.291Z,43.60
2023-04-27T21:41:33.830Z,43.10
2023-04-27T21:44:00.321Z,43.60
2023-04-27T21:51:54.695Z,43.00
2023-04-27T21:54:21.171Z,43.40
2023-04-27T21:56:47.676Z,43.00
2023-04-27T21:59:14.143Z,43.50
2023-04-27T22:01:40.669Z,42.90
2023-04-27T22:04:07.389Z,43.50
2023-04-27T22:06:34.014Z,43.50
2023-04-27T22:09:00.531Z,43.40
2023-04-27T22:11:27.046Z,43.40
2023-04-27T22:13:53.490Z,43.30
2023-04-27T22:16:19.978Z,43.40
2023-04-27T22:18:46.452Z,43.40
2023-04-27T22:21:12.960Z,42.90
2023-04-27T22:23:39.456Z,43.10
2023-04-27T22:26:07.673Z,43.40
2023-04-27T22:28:35.183Z,43.10
2023-04-27T22:31:01.704Z,42.90
2023-04-27T22:33:28.163Z,43.40
2023-04-27T22:35:54.660Z,43.40
2023-04-27T22:38:21.138Z,43.40
2023-04-27T22:40:47.596Z,43.20
2023-04-27T22:43:14.110Z,43.50
2023-04-27T22:45:40.597Z,43.50
2023-04-27T22:48:07.159Z,43.40
2023-04-27T22:50:33.751Z,42.90
2023-04-27T22:53:00.237Z,43.10
2023-04-27T22:55:26.706Z,43.50
2023-04-27T22:57:53.169Z,43.50
2023-04-27T23:00:19.624Z,43.10
2023-04-27T23:02:46.200Z,43.40
2023-04-27T23:05:12.751Z,43.40
2023-04-27T23:07:39.357Z,42.90
2023-04-27T23:10:05.986Z,42.90
2023-04-27T23:12:32.700Z,43.30
2023-04-27T23:14:59.205Z,42.60
2023-04-27T23:17:25.670Z,43.20
2023-04-27T23:19:52.164Z,43.80
2023-04-27T23:22:18.731Z,42.70
2023-04-27T23:24:45.267Z,43.30
2023-04-27T23:27:11.780Z,43.30
2023-04-27T23:29:38.247Z,43.00
2023-04-27T23:32:04.781Z,42.70
2023-04-27T23:34:31.379Z,43.20
2023-04-27T23:36:57.901Z,42.70
2023-04-27T23:39:24.358Z,42.90
2023-04-27T23:41:50.836Z,43.20
2023-04-27T23:44:17.592Z,43.00
2023-04-27T23:46:44.285Z,43.20
2023-04-27T23:49:10.891Z,43.20
2023-04-27T23:51:37.380Z,42.80
2023-04-27T23:54:03.860Z,43.20
2023-04-27T23:56:30.353Z,43.20
2023-04-27T23:58:56.833Z,43.20
